createdAt,value
2023-03-20T00:00:51.620Z,98.75
2023-03-20T00:01:51.608Z,99.31
2023-03-20T00:02:51.607Z,98.85
2023-03-20T00:03:51.688Z,98.75
2023-03-20T00:04:51.642Z,98.69
2023-03-20T00:05:51.605Z,98.69
2023-03-20T00:06:51.588Z,99.21
2023-03-20T00:07:51.588Z,98.79
2023-03-20T00:08:51.586Z,98.59
2023-03-20T00:09:51.578Z,98.79
2023-03-20T00:10:51.590Z,98.59
2023-03-20T00:11:51.586Z,98.75
2023-03-20T00:12:51.571Z,98.28
2023-03-20T00:13:51.556Z,98.49
2023-03-20T00:14:51.555Z,98.59
2023-03-20T00:15:51.564Z,98.28
2023-03-20T00:16:51.558Z,98.38
2023-03-20T00:17:51.541Z,98.79
2023-03-20T00:18:51.536Z,98.59
2023-03-20T00:19:51.542Z,98.59
2023-03-20T00:20:51.537Z,98.07
2023-03-20T00:21:51.544Z,98.38
2023-03-20T00:22:51.525Z,98.69
2023-03-20T00:23:51.518Z,98.49
2023-03-20T00:24:51.512Z,98.49
2023-03-20T00:25:51.860Z,98.69
2023-03-20T00:26:51.523Z,98.49
2023-03-20T00:27:51.498Z,98.38
2023-03-20T00:28:51.493Z,98.38
2023-03-20T00:29:51.488Z,98.38
2023-03-20T00:30:51.489Z,98.59
2023-03-20T00:31:51.613Z,98.49
2023-03-20T00:32:51.507Z,98.38
2023-03-20T00:33:51.469Z,98.38
2023-03-20T00:34:51.469Z,98.28
2023-03-20T00:35:51.461Z,97.87
2023-03-20T00:36:51.458Z,98.07
2023-03-20T00:37:51.460Z,98.38
2023-03-20T00:38:51.459Z,97.97
2023-03-20T00:39:51.446Z,98.59
2023-03-20T00:40:51.442Z,98.18
2023-03-20T00:41:51.434Z,98.28
2023-03-20T00:42:51.452Z,98.59
2023-03-20T00:43:51.427Z,98.07
2023-03-20T00:44:51.422Z,98.18
2023-03-20T00:45:51.418Z,97.97
2023-03-20T00:46:51.481Z,98.18
2023-03-20T00:47:51.429Z,98.38
2023-03-20T00:48:51.410Z,97.77
2023-03-20T00:49:51.399Z,97.97
2023-03-20T00:50:51.411Z,97.97
2023-03-20T00:51:51.395Z,97.77
2023-03-20T00:52:51.391Z,98.18
2023-03-20T00:53:51.380Z,98.07
2023-03-20T00:54:51.382Z,98.07
2023-03-20T00:55:51.371Z,98.18
2023-03-20T00:56:51.371Z,97.97
2023-03-20T00:57:51.362Z,98.18
2023-03-20T00:58:51.395Z,97.97
2023-03-20T00:59:51.363Z,97.77
2023-03-20T01:00:51.410Z,98.69
2023-03-20T01:01:51.373Z,98.69
2023-03-20T01:02:51.343Z,98.79
2023-03-20T01:03:51.340Z,98.28
2023-03-20T01:04:51.340Z,98.07
2023-03-20T01:05:51.327Z,98.18
2023-03-20T01:06:51.327Z,97.97
2023-03-20T01:07:51.321Z,97.87
2023-03-20T01:08:51.316Z,97.97
2023-03-20T01:09:51.313Z,97.87
2023-03-20T01:10:51.304Z,98.18
2023-03-20T01:11:53.644Z,98.07
2023-03-20T01:12:51.296Z,97.56
2023-03-20T01:13:51.291Z,97.25
2023-03-20T01:14:51.311Z,97.25
2023-03-20T01:15:51.282Z,97.25
2023-03-20T01:16:51.292Z,96.84
2023-03-20T01:17:51.269Z,97.25
2023-03-20T01:18:51.280Z,97.15
2023-03-20T01:19:51.261Z,97.05
2023-03-20T01:20:51.261Z,96.94
2023-03-20T01:21:51.258Z,97.15
2023-03-20T01:22:51.260Z,96.94
2023-03-20T01:23:51.248Z,97.25
2023-03-20T01:24:51.239Z,97.25
2023-03-20T01:25:51.583Z,97.45
2023-03-20T01:26:51.234Z,97.45
2023-03-20T01:27:51.227Z,97.77
2023-03-20T01:28:51.225Z,97.56
2023-03-20T01:29:51.217Z,97.66
2023-03-20T01:30:51.247Z,97.87
2023-03-20T01:31:51.250Z,98.18
2023-03-20T01:32:51.270Z,98.28
2023-03-20T01:33:51.235Z,98.38
2023-03-20T01:34:51.220Z,97.87
2023-03-20T01:35:51.249Z,97.45
2023-03-20T01:36:51.207Z,97.97
2023-03-20T01:37:51.186Z,97.97
2023-03-20T01:38:51.201Z,97.97
2023-03-20T01:39:51.206Z,97.87
2023-03-20T01:40:51.175Z,97.77
2023-03-20T01:41:51.188Z,97.97
2023-03-20T01:42:51.196Z,97.97
2023-03-20T01:43:51.192Z,97.97
2023-03-20T01:44:51.160Z,98.07
2023-03-20T01:45:51.292Z,98.03
2023-03-20T01:46:51.197Z,97.87
2023-03-20T01:47:51.174Z,97.87
2023-03-20T01:48:51.189Z,98.07
2023-03-20T01:49:51.165Z,97.36
2023-03-20T01:50:51.166Z,97.52
2023-03-20T01:51:51.139Z,97.62
2023-03-20T01:52:51.121Z,97.41
2023-03-20T01:53:51.116Z,97.45
2023-03-20T01:54:51.123Z,97.31
2023-03-20T01:55:51.112Z,97.52
2023-03-20T01:56:51.113Z,97.52
2023-03-20T01:57:51.109Z,97.56
2023-03-20T01:58:51.110Z,97.66
2023-03-20T01:59:51.092Z,97.41
2023-03-20T02:00:51.180Z,97.47
2023-03-20T02:01:51.085Z,97.52
2023-03-20T02:02:51.106Z,97.41
2023-03-20T02:03:51.074Z,96.80
2023-03-20T02:04:51.159Z,97.10
2023-03-20T02:05:51.063Z,97.00
2023-03-20T02:06:51.066Z,96.90
2023-03-20T02:07:51.058Z,97.00
2023-03-20T02:08:51.055Z,96.28
2023-03-20T02:09:51.050Z,95.97
2023-03-20T02:10:51.045Z,95.40
2023-03-20T02:11:51.047Z,95.67
2023-03-20T02:12:51.042Z,95.97
2023-03-20T02:13:51.031Z,95.92
2023-03-20T02:14:51.030Z,95.81
2023-03-20T02:15:51.025Z,95.40
2023-03-20T02:16:51.070Z,95.61
2023-03-20T02:17:51.018Z,95.71
2023-03-20T02:18:51.030Z,94.89
2023-03-20T02:19:51.012Z,94.83
2023-03-20T02:20:51.001Z,94.07
2023-03-20T02:21:50.994Z,94.11
2023-03-20T02:22:50.996Z,94.21
2023-03-20T02:23:51.003Z,93.59
2023-03-20T02:24:50.988Z,93.90
2023-03-20T02:25:50.977Z,93.74
2023-03-20T02:26:50.987Z,94.26
2023-03-20T02:27:50.975Z,94.26
2023-03-20T02:28:50.976Z,95.08
2023-03-20T02:29:50.965Z,95.59
2023-03-20T02:30:51.011Z,95.28
2023-03-20T02:31:50.961Z,96.21
2023-03-20T02:32:51.039Z,95.80
2023-03-20T02:33:50.963Z,96.21
2023-03-20T02:34:50.966Z,96.06
2023-03-20T02:35:50.981Z,96.37
2023-03-20T02:36:50.936Z,96.58
2023-03-20T02:37:50.927Z,96.58
2023-03-20T02:38:50.932Z,95.55
2023-03-20T02:39:50.931Z,95.80
2023-03-20T02:40:50.946Z,94.98
2023-03-20T02:41:51.005Z,94.46
2023-03-20T02:42:50.906Z,94.20
2023-03-20T02:43:50.899Z,94.09
2023-03-20T02:44:50.906Z,94.09
2023-03-20T02:45:50.967Z,94.09
2023-03-20T02:46:50.890Z,94.51
2023-03-20T02:47:50.884Z,95.12
2023-03-20T02:48:50.916Z,94.81
2023-03-20T02:49:50.876Z,94.20
2023-03-20T02:50:50.896Z,94.40
2023-03-20T02:51:50.876Z,94.20
2023-03-20T02:52:50.860Z,94.24
2023-03-20T02:53:50.856Z,94.13
2023-03-20T02:54:50.859Z,94.24
2023-03-20T02:55:50.855Z,94.76
2023-03-20T02:56:50.862Z,94.34
2023-03-20T02:57:50.850Z,94.59
2023-03-20T02:58:50.840Z,94.96
2023-03-20T02:59:50.830Z,96.03
2023-03-20T03:00:50.826Z,95.93
2023-03-20T03:01:50.888Z,95.89
2023-03-20T03:02:50.845Z,96.20
2023-03-20T03:03:50.819Z,96.41
2023-03-20T03:04:50.825Z,96.41
2023-03-20T03:05:50.812Z,97.02
2023-03-20T03:06:50.826Z,96.92
2023-03-20T03:07:50.799Z,97.13
2023-03-20T03:08:50.793Z,96.61
2023-03-20T03:09:50.788Z,97.18
2023-03-20T03:10:50.786Z,96.97
2023-03-20T03:11:50.778Z,97.39
2023-03-20T03:12:50.786Z,97.28
2023-03-20T03:13:50.773Z,96.77
2023-03-20T03:14:50.766Z,96.56
2023-03-20T03:15:50.810Z,97.39
2023-03-20T03:16:50.761Z,96.88
2023-03-20T03:17:50.771Z,96.77
2023-03-20T03:18:50.750Z,97.28
2023-03-20T03:19:50.749Z,97.24
2023-03-20T03:20:50.744Z,97.18
2023-03-20T03:21:50.752Z,97.34
2023-03-20T03:22:50.758Z,96.83
2023-03-20T03:23:50.727Z,97.18
2023-03-20T03:24:50.730Z,96.83
2023-03-20T03:25:50.719Z,96.93
2023-03-20T03:26:50.713Z,97.39
2023-03-20T03:27:50.709Z,97.03
2023-03-20T03:28:50.706Z,96.77
2023-03-20T03:29:50.697Z,96.97
2023-03-20T03:30:50.730Z,97.18
2023-03-20T03:31:50.689Z,97.08
2023-03-20T03:32:50.820Z,96.88
2023-03-20T03:33:50.684Z,97.08
2023-03-20T03:34:50.677Z,96.56
2023-03-20T03:35:50.728Z,97.08
2023-03-20T03:36:50.672Z,97.08
2023-03-20T03:37:50.676Z,97.28
2023-03-20T03:38:50.684Z,97.60
2023-03-20T03:39:50.662Z,96.97
2023-03-20T03:40:50.650Z,97.28
2023-03-20T03:41:50.647Z,97.60
2023-03-20T03:42:50.642Z,97.90
2023-03-20T03:43:50.637Z,98.00
2023-03-20T03:44:50.632Z,97.65
2023-03-20T03:45:50.650Z,97.44
2023-03-20T03:46:50.696Z,97.86
2023-03-20T03:47:50.634Z,97.55
2023-03-20T03:48:50.632Z,97.24
2023-03-20T03:49:50.612Z,97.03
2023-03-20T03:50:50.604Z,96.83
2023-03-20T03:51:50.602Z,96.67
2023-03-20T03:52:50.596Z,96.56
2023-03-20T03:53:50.597Z,96.46
2023-03-20T03:54:50.609Z,96.56
2023-03-20T03:55:50.687Z,96.67
2023-03-20T03:56:50.590Z,96.50
2023-03-20T03:57:50.584Z,96.30
2023-03-20T03:58:50.570Z,96.92
2023-03-20T03:59:50.574Z,96.92
2023-03-20T04:00:50.612Z,96.61
2023-03-20T04:01:50.594Z,97.53
2023-03-20T04:02:50.555Z,97.02
2023-03-20T04:03:50.553Z,97.43
2023-03-20T04:04:50.668Z,97.53
2023-03-20T04:05:50.544Z,97.85
2023-03-20T04:06:50.544Z,98.36
2023-03-20T04:07:50.537Z,98.11
2023-03-20T04:08:50.533Z,98.15
2023-03-20T04:09:50.540Z,98.83
2023-03-20T04:10:50.540Z,98.42
2023-03-20T04:11:50.518Z,98.42
2023-03-20T04:12:50.508Z,98.11
2023-03-20T04:13:50.513Z,98.83
2023-03-20T04:14:50.511Z,98.83
2023-03-20T04:15:50.554Z,98.83
2023-03-20T04:16:50.495Z,98.83
2023-03-20T04:17:50.490Z,98.88
2023-03-20T04:18:50.494Z,98.83
2023-03-20T04:19:50.497Z,98.88
2023-03-20T04:20:50.476Z,98.79
2023-03-20T04:21:50.474Z,98.88
2023-03-20T04:22:50.468Z,98.47
2023-03-20T04:23:50.466Z,98.27
2023-03-20T04:24:50.472Z,98.68
2023-03-20T04:25:50.457Z,98.93
2023-03-20T04:26:50.476Z,98.16
2023-03-20T04:27:50.468Z,98.27
2023-03-20T04:28:50.446Z,97.65
2023-03-20T04:29:50.440Z,97.69
2023-03-20T04:30:50.786Z,97.65
2023-03-20T04:31:50.540Z,98.32
2023-03-20T04:32:50.448Z,98.06
2023-03-20T04:33:50.432Z,98.27
2023-03-20T04:34:50.424Z,98.06
2023-03-20T04:35:50.442Z,98.06
2023-03-20T04:36:50.408Z,97.96
2023-03-20T04:37:50.405Z,98.06
2023-03-20T04:38:50.397Z,98.16
2023-03-20T04:39:50.403Z,97.61
2023-03-20T04:40:50.389Z,97.65
2023-03-20T04:41:50.388Z,97.03
2023-03-20T04:42:50.401Z,96.93
2023-03-20T04:43:50.378Z,97.14
2023-03-20T04:44:50.374Z,96.83
2023-03-20T04:45:50.406Z,96.42
2023-03-20T04:46:50.378Z,96.72
2023-03-20T04:47:50.366Z,96.72
2023-03-20T04:48:50.351Z,96.72
2023-03-20T04:49:50.355Z,96.72
2023-03-20T04:50:50.364Z,96.83
2023-03-20T04:51:50.346Z,96.93
2023-03-20T04:52:50.340Z,96.62
2023-03-20T04:53:50.358Z,97.03
2023-03-20T04:54:50.331Z,96.93
2023-03-20T04:55:50.325Z,96.68
2023-03-20T04:56:50.336Z,97.09
2023-03-20T04:57:50.321Z,96.89
2023-03-20T04:58:50.332Z,96.58
2023-03-20T04:59:50.308Z,96.17
2023-03-20T05:00:50.440Z,95.96
2023-03-20T05:01:50.301Z,96.31
2023-03-20T05:02:50.297Z,96.42
2023-03-20T05:03:50.309Z,96.31
2023-03-20T05:04:50.287Z,96.52
2023-03-20T05:05:50.284Z,96.42
2023-03-20T05:06:50.279Z,96.21
2023-03-20T05:07:50.274Z,95.70
2023-03-20T05:08:50.264Z,95.80
2023-03-20T05:09:50.263Z,95.90
2023-03-20T05:10:50.258Z,95.80
2023-03-20T05:11:50.282Z,96.17
2023-03-20T05:12:50.250Z,96.11
2023-03-20T05:13:50.243Z,96.31
2023-03-20T05:14:50.258Z,95.28
2023-03-20T05:15:50.234Z,96.00
2023-03-20T05:16:50.307Z,95.59
2023-03-20T05:17:51.800Z,95.08
2023-03-20T05:18:50.223Z,94.98
2023-03-20T05:19:50.228Z,94.98
2023-03-20T05:20:50.210Z,95.18
2023-03-20T05:21:50.209Z,94.98
2023-03-20T05:22:50.201Z,95.49
2023-03-20T05:23:50.200Z,95.49
2023-03-20T05:24:50.206Z,95.59
2023-03-20T05:25:50.193Z,95.70
2023-03-20T05:26:50.184Z,94.98
2023-03-20T05:27:50.180Z,94.46
2023-03-20T05:28:50.174Z,94.56
2023-03-20T05:29:50.173Z,94.15
2023-03-20T05:30:50.677Z,94.15
2023-03-20T05:31:50.168Z,94.15
2023-03-20T05:32:50.221Z,93.99
2023-03-20T05:33:50.157Z,94.20
2023-03-20T05:34:50.146Z,94.20
2023-03-20T05:35:50.163Z,94.20
2023-03-20T05:36:50.150Z,94.20
2023-03-20T05:37:50.138Z,94.20
2023-03-20T05:38:50.133Z,94.20
2023-03-20T05:39:50.132Z,94.20
2023-03-20T05:40:50.126Z,94.30
2023-03-20T05:41:50.125Z,94.30
2023-03-20T05:42:50.118Z,94.30
2023-03-20T05:43:50.110Z,94.20
2023-03-20T05:44:50.101Z,94.51
2023-03-20T05:45:50.152Z,94.60
2023-03-20T05:46:50.113Z,94.51
2023-03-20T05:47:50.094Z,94.60
2023-03-20T05:48:50.092Z,94.81
2023-03-20T05:49:50.083Z,94.71
2023-03-20T05:50:50.085Z,94.60
2023-03-20T05:51:50.075Z,95.02
2023-03-20T05:52:50.077Z,95.23
2023-03-20T05:53:50.071Z,94.71
2023-03-20T05:54:50.067Z,95.23
2023-03-20T05:55:50.069Z,95.23
2023-03-20T05:56:50.104Z,95.12
2023-03-20T05:57:50.060Z,95.12
2023-03-20T05:58:50.066Z,95.80
2023-03-20T05:59:50.044Z,95.64
2023-03-20T06:00:50.035Z,95.59
2023-03-20T06:01:50.037Z,95.74
2023-03-20T06:02:50.211Z,94.71
2023-03-20T06:03:50.057Z,95.12
2023-03-20T06:04:50.023Z,94.92
2023-03-20T06:05:50.034Z,95.53
2023-03-20T06:06:50.014Z,95.59
2023-03-20T06:07:50.004Z,95.59
2023-03-20T06:08:49.998Z,95.95
2023-03-20T06:09:49.996Z,95.70
2023-03-20T06:10:49.998Z,95.59
2023-03-20T06:11:50.008Z,95.59
2023-03-20T06:12:49.982Z,95.80
2023-03-20T06:13:49.977Z,95.59
2023-03-20T06:14:49.970Z,95.70
2023-03-20T06:15:50.063Z,96.11
2023-03-20T06:16:49.963Z,95.59
2023-03-20T06:17:49.969Z,95.70
2023-03-20T06:18:49.979Z,96.00
2023-03-20T06:19:49.956Z,96.11
2023-03-20T06:20:49.949Z,95.70
2023-03-20T06:21:49.949Z,96.17
2023-03-20T06:22:49.937Z,96.21
2023-03-20T06:23:49.937Z,96.27
2023-03-20T06:24:49.928Z,96.37
2023-03-20T06:25:49.926Z,96.47
2023-03-20T06:26:49.922Z,96.06
2023-03-20T06:27:49.923Z,96.06
2023-03-20T06:28:49.909Z,96.06
2023-03-20T06:29:49.906Z,96.58
2023-03-20T06:30:49.950Z,96.17
2023-03-20T06:31:50.249Z,96.37
2023-03-20T06:32:49.932Z,96.06
2023-03-20T06:33:49.885Z,96.17
2023-03-20T06:34:49.896Z,96.17
2023-03-20T06:35:49.934Z,96.42
2023-03-20T06:36:49.873Z,96.17
2023-03-20T06:37:49.873Z,96.37
2023-03-20T06:38:49.862Z,96.17
2023-03-20T06:39:49.867Z,96.27
2023-03-20T06:40:49.868Z,96.37
2023-03-20T06:41:49.854Z,96.17
2023-03-20T06:42:49.857Z,96.27
2023-03-20T06:43:49.840Z,96.17
2023-03-20T06:44:49.834Z,96.27
2023-03-20T06:45:49.832Z,96.27
2023-03-20T06:46:49.886Z,96.27
2023-03-20T06:47:49.834Z,96.27
2023-03-20T06:48:49.827Z,96.58
2023-03-20T06:49:49.814Z,96.37
2023-03-20T06:50:49.828Z,96.47
2023-03-20T06:51:49.810Z,96.47
2023-03-20T06:52:49.803Z,96.43
2023-03-20T06:53:49.800Z,96.06
2023-03-20T06:54:49.790Z,96.37
2023-03-20T06:55:49.786Z,96.43
2023-03-20T06:56:49.779Z,96.17
2023-03-20T06:57:49.777Z,96.12
2023-03-20T06:58:49.776Z,96.53
2023-03-20T06:59:49.772Z,96.43
2023-03-20T07:00:49.763Z,96.33
2023-03-20T07:01:49.810Z,96.22
2023-03-20T07:02:49.757Z,96.43
2023-03-20T07:03:49.758Z,96.33
2023-03-20T07:04:49.844Z,96.33
2023-03-20T07:05:49.751Z,96.33
2023-03-20T07:06:49.766Z,96.02
2023-03-20T07:07:49.744Z,95.81
2023-03-20T07:08:49.734Z,95.75
2023-03-20T07:09:49.728Z,95.81
2023-03-20T07:10:49.776Z,96.12
2023-03-20T07:11:49.727Z,96.02
2023-03-20T07:12:49.723Z,96.22
2023-03-20T07:13:50.049Z,95.50
2023-03-20T07:14:49.716Z,95.71
2023-03-20T07:16:03.342Z,95.71
2023-03-20T07:16:49.727Z,95.61
2023-03-20T07:17:49.699Z,96.02
2023-03-20T07:18:49.694Z,96.02
2023-03-20T07:19:49.694Z,95.81
2023-03-20T07:20:49.684Z,95.81
2023-03-20T07:21:49.697Z,96.12
2023-03-20T07:22:49.696Z,95.50
2023-03-20T07:23:49.674Z,96.22
2023-03-20T07:24:49.668Z,96.39
2023-03-20T07:25:49.668Z,96.33
2023-03-20T07:26:49.669Z,96.18
2023-03-20T07:27:49.657Z,96.28
2023-03-20T07:28:49.661Z,96.02
2023-03-20T07:29:49.651Z,95.92
2023-03-20T07:30:49.641Z,95.81
2023-03-20T07:31:49.676Z,95.92
2023-03-20T07:32:49.711Z,95.92
2023-03-20T07:33:49.639Z,95.92
2023-03-20T07:34:49.629Z,96.02
2023-03-20T07:35:49.687Z,95.71
2023-03-20T07:36:49.616Z,95.92
2023-03-20T07:37:49.663Z,95.40
2023-03-20T07:38:49.641Z,95.92
2023-03-20T07:39:49.610Z,94.58
2023-03-20T07:40:49.596Z,94.48
2023-03-20T07:41:49.605Z,94.58
2023-03-20T07:42:49.602Z,94.48
2023-03-20T07:43:49.589Z,94.37
2023-03-20T07:44:49.587Z,94.68
2023-03-20T07:45:49.615Z,94.58
2023-03-20T07:46:49.573Z,94.48
2023-03-20T07:47:49.622Z,94.99
2023-03-20T07:48:49.569Z,94.58
2023-03-20T07:49:49.559Z,94.23
2023-03-20T07:50:49.553Z,94.17
2023-03-20T07:51:49.558Z,94.23
2023-03-20T07:52:49.538Z,94.07
2023-03-20T07:53:49.538Z,94.58
2023-03-20T07:54:49.555Z,93.96
2023-03-20T07:55:49.540Z,94.07
2023-03-20T07:56:49.527Z,93.86
2023-03-20T07:57:49.542Z,94.07
2023-03-20T07:58:49.526Z,94.07
2023-03-20T07:59:49.514Z,93.82
2023-03-20T08:00:49.528Z,94.07
2023-03-20T08:01:49.503Z,94.02
2023-03-20T08:02:49.724Z,93.76
2023-03-20T08:03:49.726Z,91.91
2023-03-20T08:04:49.500Z,92.01
2023-03-20T08:05:49.503Z,92.32
2023-03-20T08:06:49.483Z,91.91
2023-03-20T08:07:49.477Z,91.49
2023-03-20T08:08:49.473Z,92.21
2023-03-20T08:09:49.467Z,91.60
2023-03-20T08:10:49.484Z,91.29
2023-03-20T08:11:49.481Z,91.70
2023-03-20T08:12:49.461Z,92.52
2023-03-20T08:13:49.471Z,92.42
2023-03-20T08:14:49.450Z,91.97
2023-03-20T08:15:49.447Z,92.48
2023-03-20T08:17:02.415Z,93.61
2023-03-20T08:17:49.461Z,94.12
2023-03-20T08:18:49.435Z,92.69
2023-03-20T08:19:49.432Z,92.58
2023-03-20T08:20:49.428Z,92.58
2023-03-20T08:21:49.420Z,92.48
2023-03-20T08:22:49.419Z,92.48
2023-03-20T08:23:49.413Z,91.66
2023-03-20T08:24:49.413Z,91.14
2023-03-20T08:25:49.425Z,90.94
2023-03-20T08:26:49.491Z,90.42
2023-03-20T08:27:49.409Z,89.40
2023-03-20T08:28:50.073Z,88.27
2023-03-20T08:29:49.395Z,88.57
2023-03-20T08:30:49.659Z,88.37
2023-03-20T08:31:49.418Z,88.37
2023-03-20T08:32:49.416Z,88.17
2023-03-20T08:33:49.372Z,88.57
2023-03-20T08:34:49.377Z,89.40
2023-03-20T08:35:49.730Z,88.68
2023-03-20T08:36:49.640Z,88.68
2023-03-20T08:37:49.368Z,88.84
2023-03-20T08:38:49.352Z,88.17
2023-03-20T08:39:49.349Z,88.12
2023-03-20T08:40:49.344Z,88.53
2023-03-20T08:41:49.649Z,88.95
2023-03-20T08:42:49.368Z,88.33
2023-03-20T08:43:49.373Z,88.74
2023-03-20T08:44:49.336Z,88.43
2023-03-20T08:45:49.336Z,88.80
2023-03-20T08:46:49.360Z,88.18
2023-03-20T08:47:49.310Z,87.57
2023-03-20T08:48:49.310Z,87.57
2023-03-20T08:49:49.300Z,85.82
2023-03-20T08:50:49.306Z,85.62
2023-03-20T08:51:49.293Z,86.03
2023-03-20T08:52:49.296Z,84.86
2023-03-20T08:53:49.284Z,85.06
2023-03-20T08:54:49.280Z,85.68
2023-03-20T08:55:49.292Z,85.27
2023-03-20T08:56:49.319Z,85.89
2023-03-20T08:57:49.267Z,85.58
2023-03-20T08:58:49.283Z,87.02
2023-03-20T08:59:49.259Z,85.47
2023-03-20T09:00:49.258Z,85.58
2023-03-20T09:01:50.559Z,85.78
2023-03-20T09:02:49.275Z,84.14
2023-03-20T09:03:49.241Z,84.28
2023-03-20T09:04:49.237Z,84.08
2023-03-20T09:05:49.239Z,85.52
2023-03-20T09:06:49.357Z,84.39
2023-03-20T09:07:49.230Z,83.26
2023-03-20T09:08:49.221Z,82.75
2023-03-20T09:09:49.215Z,82.75
2023-03-20T09:10:52.074Z,83.98
2023-03-20T09:11:49.207Z,83.36
2023-03-20T09:12:49.203Z,84.39
2023-03-20T09:13:49.197Z,84.69
2023-03-20T09:14:49.220Z,84.80
2023-03-20T09:15:49.201Z,85.41
2023-03-20T09:16:49.190Z,85.72
2023-03-20T09:17:49.183Z,84.18
2023-03-20T09:18:49.183Z,84.49
2023-03-20T09:19:49.182Z,85.93
2023-03-20T09:20:49.246Z,85.82
2023-03-20T09:21:49.169Z,84.74
2023-03-20T09:22:49.166Z,83.56
2023-03-20T09:23:49.157Z,84.80
2023-03-20T09:24:49.161Z,85.00
2023-03-20T09:25:49.156Z,84.28
2023-03-20T09:26:49.168Z,84.42
2023-03-20T09:27:49.144Z,84.63
2023-03-20T09:28:49.138Z,84.12
2023-03-20T09:29:49.136Z,83.29
2023-03-20T09:30:49.173Z,84.69
2023-03-20T09:31:49.130Z,85.41
2023-03-20T09:32:49.217Z,84.84
2023-03-20T09:33:49.116Z,83.98
2023-03-20T09:34:49.121Z,83.91
2023-03-20T09:35:49.137Z,84.18
2023-03-20T09:36:49.111Z,85.82
2023-03-20T09:37:49.102Z,85.82
2023-03-20T09:38:49.101Z,85.52
2023-03-20T09:39:49.092Z,85.52
2023-03-20T09:40:49.090Z,85.72
2023-03-20T09:41:56.657Z,86.03
2023-03-20T09:42:49.081Z,85.00
2023-03-20T09:43:49.082Z,85.93
2023-03-20T09:44:49.087Z,85.82
2023-03-20T09:45:49.074Z,85.72
2023-03-20T09:46:49.237Z,84.80
2023-03-20T09:47:49.058Z,83.98
2023-03-20T09:48:49.055Z,84.39
2023-03-20T09:49:49.047Z,84.08
2023-03-20T09:50:49.047Z,84.86
2023-03-20T09:51:49.043Z,85.58
2023-03-20T09:52:49.039Z,82.84
2023-03-20T09:53:49.031Z,82.33
2023-03-20T09:54:54.514Z,82.33
2023-03-20T09:55:49.061Z,83.98
2023-03-20T09:56:49.019Z,84.39
2023-03-20T09:57:49.022Z,85.58
2023-03-20T09:58:49.018Z,84.66
2023-03-20T09:59:49.010Z,84.04
2023-03-20T10:00:49.016Z,83.83
2023-03-20T10:01:49.092Z,84.45
2023-03-20T10:02:49.014Z,84.25
2023-03-20T10:03:48.993Z,83.63
2023-03-20T10:04:49.045Z,82.56
2023-03-20T10:05:48.979Z,82.40
2023-03-20T10:06:48.980Z,82.09
2023-03-20T10:07:48.981Z,81.06
2023-03-20T10:08:48.968Z,82.36
2023-03-20T10:09:48.963Z,81.37
2023-03-20T10:10:48.995Z,81.06
2023-03-20T10:11:48.956Z,81.68
2023-03-20T10:12:48.960Z,82.26
2023-03-20T10:13:48.946Z,82.67
2023-03-20T10:14:48.954Z,82.56
2023-03-20T10:15:49.045Z,82.77
2023-03-20T10:16:48.950Z,82.36
2023-03-20T10:17:48.937Z,80.00
2023-03-20T10:18:48.949Z,79.80
2023-03-20T10:19:48.920Z,78.87
2023-03-20T10:20:50.816Z,79.08
2023-03-20T10:21:48.913Z,79.49
2023-03-20T10:22:48.913Z,80.00
2023-03-20T10:23:48.906Z,81.23
2023-03-20T10:24:48.914Z,80.31
2023-03-20T10:25:48.897Z,78.09
2023-03-20T10:26:48.895Z,77.47
2023-03-20T10:27:48.892Z,78.29
2023-03-20T10:28:48.885Z,78.81
2023-03-20T10:29:48.885Z,78.13
2023-03-20T10:30:48.881Z,78.70
2023-03-20T10:31:48.902Z,80.76
2023-03-20T10:32:48.896Z,80.04
2023-03-20T10:33:48.867Z,80.35
2023-03-20T10:34:48.879Z,80.45
2023-03-20T10:35:48.934Z,78.81
2023-03-20T10:36:48.852Z,79.52
2023-03-20T10:37:48.847Z,79.42
2023-03-20T10:38:48.846Z,79.83
2023-03-20T10:39:48.836Z,80.35
2023-03-20T10:40:48.836Z,79.69
2023-03-20T10:41:48.830Z,77.64
2023-03-20T10:42:49.026Z,77.58
2023-03-20T10:43:48.834Z,78.56
2023-03-20T10:44:48.821Z,77.64
2023-03-20T10:45:48.814Z,78.25
2023-03-20T10:46:48.887Z,79.08
2023-03-20T10:47:48.833Z,79.28
2023-03-20T10:48:48.803Z,77.74
2023-03-20T10:49:51.336Z,77.95
2023-03-20T10:50:48.819Z,77.74
2023-03-20T10:51:48.791Z,77.23
2023-03-20T10:52:48.783Z,76.20
2023-03-20T10:53:48.780Z,78.97
2023-03-20T10:54:48.784Z,77.74
2023-03-20T10:55:48.770Z,78.77
2023-03-20T10:56:48.767Z,79.18
2023-03-20T10:57:48.763Z,80.31
2023-03-20T10:58:48.764Z,78.56
2023-03-20T10:59:48.755Z,77.95
2023-03-20T11:00:48.765Z,78.46
2023-03-20T11:01:48.745Z,78.46
2023-03-20T11:02:48.745Z,78.16
2023-03-20T11:03:48.804Z,78.25
2023-03-20T11:04:48.757Z,78.05
2023-03-20T11:06:02.245Z,76.24
2023-03-20T11:06:48.749Z,77.68
2023-03-20T11:07:48.730Z,79.22
2023-03-20T11:08:48.724Z,78.81
2023-03-20T11:09:48.722Z,79.22
2023-03-20T11:10:48.717Z,78.91
2023-03-20T11:11:48.712Z,79.01
2023-03-20T11:12:48.705Z,79.22
2023-03-20T11:13:48.699Z,79.63
2023-03-20T11:14:48.695Z,79.63
2023-03-20T11:15:48.692Z,79.42
2023-03-20T11:16:48.814Z,79.22
2023-03-20T11:17:48.692Z,81.06
2023-03-20T11:18:48.688Z,81.06
2023-03-20T11:19:48.680Z,80.65
2023-03-20T11:20:48.677Z,80.86
2023-03-20T11:21:48.686Z,82.81
2023-03-20T11:22:48.690Z,83.01
2023-03-20T11:23:48.662Z,84.86
2023-03-20T11:24:48.670Z,85.21
2023-03-20T11:25:48.653Z,85.31
2023-03-20T11:26:48.663Z,86.07
2023-03-20T11:27:48.649Z,85.86
2023-03-20T11:28:48.648Z,85.76
2023-03-20T11:29:48.650Z,85.86
2023-03-20T11:31:03.947Z,85.86
2023-03-20T11:31:48.690Z,84.53
2023-03-20T11:32:48.702Z,84.32
2023-03-20T11:33:48.618Z,84.26
2023-03-20T11:34:48.617Z,85.90
2023-03-20T11:35:48.665Z,87.04
2023-03-20T11:36:53.054Z,86.11
2023-03-20T11:37:48.599Z,87.24
2023-03-20T11:38:48.618Z,86.32
2023-03-20T11:39:48.590Z,87.96
2023-03-20T11:40:48.601Z,88.53
2023-03-20T11:41:48.577Z,88.84
2023-03-20T11:42:48.784Z,88.64
2023-03-20T11:43:48.583Z,88.84
2023-03-20T11:44:48.570Z,89.15
2023-03-20T11:45:48.609Z,91.06
2023-03-20T11:46:48.557Z,90.18
2023-03-20T11:47:48.554Z,89.31
2023-03-20T11:48:48.559Z,88.84
2023-03-20T11:49:48.547Z,88.29
2023-03-20T11:50:48.546Z,88.70
2023-03-20T11:51:48.550Z,88.90
2023-03-20T11:52:48.534Z,87.88
2023-03-20T11:53:48.533Z,87.16
2023-03-20T11:54:48.552Z,86.44
2023-03-20T11:55:48.524Z,86.54
2023-03-20T11:56:48.521Z,86.03
2023-03-20T11:57:48.516Z,85.82
2023-03-20T11:58:48.514Z,86.33
2023-03-20T11:59:48.506Z,85.31
2023-03-20T12:00:48.503Z,85.72
2023-03-20T12:01:48.497Z,85.72
2023-03-20T12:02:48.521Z,85.62
2023-03-20T12:03:48.504Z,85.93
2023-03-20T12:04:48.486Z,85.62
2023-03-20T12:05:48.479Z,85.21
2023-03-20T12:06:48.479Z,85.99
2023-03-20T12:07:48.474Z,85.82
2023-03-20T12:08:48.472Z,85.62
2023-03-20T12:09:48.465Z,85.52
2023-03-20T12:10:48.482Z,84.12
2023-03-20T12:11:48.459Z,84.39
2023-03-20T12:12:48.451Z,85.82
2023-03-20T12:13:48.449Z,85.41
2023-03-20T12:14:48.446Z,85.52
2023-03-20T12:15:48.501Z,85.72
2023-03-20T12:16:48.436Z,86.03
2023-03-20T12:17:48.448Z,85.00
2023-03-20T12:18:48.431Z,84.59
2023-03-20T12:19:48.426Z,85.41
2023-03-20T12:20:48.422Z,84.49
2023-03-20T12:21:48.593Z,84.22
2023-03-20T12:22:48.416Z,84.49
2023-03-20T12:23:48.408Z,85.04
2023-03-20T12:24:48.405Z,85.93
2023-03-20T12:25:48.404Z,85.55
2023-03-20T12:26:48.420Z,85.66
2023-03-20T12:27:48.395Z,84.12
2023-03-20T12:28:48.387Z,85.72
2023-03-20T12:29:48.403Z,85.97
2023-03-20T12:30:48.403Z,87.30
2023-03-20T12:31:48.375Z,87.71
2023-03-20T12:32:48.428Z,87.61
2023-03-20T12:33:48.368Z,88.33
2023-03-20T12:34:48.360Z,87.98
2023-03-20T12:35:48.401Z,88.74
2023-03-20T12:36:48.368Z,88.59
2023-03-20T12:37:48.375Z,88.74
2023-03-20T12:38:48.347Z,89.46
2023-03-20T12:39:48.345Z,89.52
2023-03-20T12:40:48.339Z,89.42
2023-03-20T12:41:48.341Z,89.42
2023-03-20T12:42:48.604Z,89.62
2023-03-20T12:43:48.331Z,89.04
2023-03-20T12:44:48.320Z,89.31
2023-03-20T12:45:48.321Z,89.31
2023-03-20T12:46:48.422Z,88.70
2023-03-20T12:47:48.309Z,88.74
2023-03-20T12:48:48.307Z,88.39
2023-03-20T12:49:48.306Z,87.61
2023-03-20T12:50:48.292Z,87.40
2023-03-20T12:51:48.293Z,87.51
2023-03-20T12:52:48.286Z,88.12